events-overview

Kinetic Sprint

 

Overall Men

Lake Anna State Park-Spotsylvania, VA 4/22/2007 11:00AM

** Results are for the private use of participants and are the Intellectual Property of Set Up Events. Unauthorized use of these results is prohibited.

Place Age Cat. NAME CITY/STATE Rank SWIM Rank T1 Rank BIKE Rank T2 Rank RUN PENALTY TIME DQ
125EMJOE MCDANIELAKRON OH1200:09:501000:01:11100:42:201100:00:43100:17:27 01:11:30 
226EMRICK FESLERCAMP HILL PA1000:09:46900:01:11300:42:41400:00:36500:18:47 01:12:59 
326EMMICHAEL FLANAGANARLINGTON VA300:08:522400:01:24200:42:30800:00:392300:20:51 01:14:14 
431EMRYAN HYSLOPVIRGINIA BEACH VA2500:10:401700:01:15400:43:01300:00:33700:19:19 01:14:46 
527EMBENJI JONESGREENSBORO NC3700:11:09400:01:061000:44:06100:00:31200:17:57 01:14:46 
635EMDAVID STEELESTAFFORD VA1900:10:241800:01:161100:44:12200:00:33600:18:50 01:15:13 
745 DAVID CASCIORESTON VA1300:10:001600:01:151900:45:291900:00:46800:19:37 01:17:06 
836EMDAVID GLOVERRESTON VA3400:11:012200:01:212100:45:44700:00:38400:18:27 01:17:10 
946 CAL BIESECKERBARBOURSVILLE VA3300:11:001400:01:141300:44:491200:00:431000:19:48 01:17:31 
1033EMCHIP BERRYSPRINGFIELD VA200:08:505400:01:502600:46:383100:00:501700:20:28 01:18:34 
1137EMJOHN MCGARVAMECHNICSVILLE VA5400:12:046100:01:55500:43:141300:00:442800:21:03 01:18:59 
1252EMMICHAEL BUONAUGURIOFALLS CHURCH VA3900:11:14800:01:10600:43:40500:00:371900:20:4000:02:0001:19:20 
1323EMDAVE SMITHVIRGINIA BEACH VA4000:11:157200:01:581700:45:231400:00:451300:20:17 01:19:36 
1417 GRAYSON COBBRICHMOND VA5500:12:043200:01:331600:45:132900:00:502000:20:45 01:20:24 
1524 GEOFF PATTERSONARLINGTON VA2200:10:333700:01:393000:47:119300:01:081100:20:02 01:20:30 
1632 GEORGE LOWEVIRGINIA BEACH VA6600:12:242700:01:262000:45:413500:00:521400:20:21 01:20:43 
1741 PASCAL FERNANDEZMIDLOTHIAN VA11700:13:264300:01:41700:43:4110400:01:113100:21:11 01:21:08 
1831 ROBERT CRISTMANSALISBURY NC5000:11:493800:01:392800:47:032000:00:461200:20:07 01:21:21 
1936 FRANCOIS FABIATOGLEN ALLEN VA15300:13:585500:01:50900:44:046000:00:592100:20:49 01:21:38 
2043EMDOUGLAS MAROCCOMONTCLAIR VA2400:10:392300:01:225500:49:231000:00:40900:19:43 01:21:44 
2135 DAN SUMMERLINROANOKE VA600:09:213000:01:315300:49:067300:01:022400:20:57 01:21:55 
2221 ANDERS CHRISTOFFERSONGREENVILLE DE3800:11:141900:01:192900:47:032300:00:483700:21:34 01:21:56 
2342 ROB JONESCHARLOTTESVILLE VA100:08:422000:01:193600:47:453300:00:528600:23:29 01:22:06 
2435 KEVIN GREENGAITHERSBURG MD7200:12:343600:01:381400:45:043400:00:524800:22:08 01:22:13 
2529 JAMES FOGGGERMANTOWN MD11500:13:245800:01:522200:46:012100:00:471600:20:27 01:22:29 
2636 KRISTOPHER AUERBALTIMORE MD17900:14:466800:01:57800:44:044900:00:572500:20:57 01:22:38 
2725 RYAN STROHLFALLS CHURCH VA12000:13:2812700:02:293400:47:396900:01:01300:18:26 01:23:02 
2852 PERRY LANGEVIRGINIA BEACH VA1600:10:094100:01:403700:47:464100:00:556000:22:42 01:23:10 
2947 ANDREW PALOWITCHMCLEAN VA12500:13:315900:01:531800:45:285400:00:573600:21:32 01:23:20 
3036CWILLIAM AMICKDARNESTOWN MD1400:10:067500:01:592700:46:5513700:01:198500:23:27 01:23:45 
PlaceAgeCat.NAMECITY/STATERankSWIMRankT1RankBIKERankT2RankRUNPENALTYTIMEDQ
3136 KEVIN KUNKELRESTON VA12400:13:3110200:02:152300:46:148200:01:042600:21:00 01:24:02 
3250 RANDY CHRISTOFFERSONGREENVILLE DE14900:13:564700:01:421500:45:126100:00:595800:22:39 01:24:26 
3335 ROBERT OSTERRIEDSTERLING VA13200:13:366000:01:543200:47:204800:00:562200:20:50 01:24:35 
3434 ROBERT MOFFETTSILVER SPRING MD400:09:16100:00:567300:50:1513600:01:187200:23:01 01:24:44Y
3525 SETH FLORYFALLS CHURCH VA8200:12:489200:02:103900:48:0613000:01:161800:20:38 01:24:56 
3636 STEPHEN LINDRIDGEMIDLOTHIAN VA7600:12:352600:01:255000:48:593600:00:523000:21:10 01:25:00 
3746 BEN WILLISVIRGINIA BEACH VA4700:11:4212800:02:292500:46:2810100:01:097900:23:14 01:25:01 
3847 KEITH PETERSONFALLS CHURCH VA2700:10:455200:01:455400:49:184600:00:565400:22:32 01:25:14 
3933 KYLE SCOTTASHBURN VA4800:11:4711500:02:232400:46:2411000:01:129000:23:39 01:25:22 
4042 JAY CRABTREERICHMOND VA9000:12:552900:01:295100:49:031500:00:464100:21:45 01:25:55 
4141 JAY TALBOTTSILVER SPRING MD11600:13:258900:02:083300:47:215800:00:585000:22:19 01:26:09 
4228 SCOTT BAILEYCENTREVILLE VA22600:15:494000:01:404400:48:19900:00:401500:20:25 01:26:50 
4345 STEVE GRIFFITHGLEN ALLEN VA7500:12:359800:02:124900:48:589200:01:074500:22:02 01:26:52 
4436 MARK RUSSELLSTAUNTON VA23600:16:107300:01:581200:44:362400:00:498200:23:21 01:26:53 
4550EMROBERT VOGELLYNCHBURG VA4100:11:164600:01:427400:50:177200:01:026600:22:50 01:27:04 
4648 MARK HANLONFAIRFAX VA7700:12:3910900:02:194600:48:4412200:01:145200:22:28 01:27:23 
4732 DAVID CRUMFAIRFAX VA900:09:45200:01:019200:51:2415100:01:2210400:24:04 01:27:34Y
4828 BRIAN WHITESELLGAMBRILLS MD2900:10:496500:01:568600:51:016600:01:016800:22:53 01:27:39 
4931EMTIM LYNCHMECHANICSBURG PA1700:10:134200:01:4014600:53:432600:00:493400:21:20 01:27:44 
5028 DAVID MARQUARDTNORTH BETHESDA MD8800:12:523500:01:377100:50:127500:01:024600:22:06 01:27:48 
5135 JAMES MORRISONNEW YORK NY9600:13:065100:01:444500:48:3722100:01:396300:22:47 01:27:50 
5237 RICH MANDLEURFALLS CHURCH VA    6500:49:595500:00:573900:21:38 01:27:51 
5329 BEN FULWIDERNASHVILLE TN10400:13:1610300:02:155800:49:3616800:01:253500:21:21 01:27:52 
5436 DANIEL FLETCHERHARPERS FERRY WV5100:11:556600:01:577200:50:1312500:01:155900:22:39 01:27:57 
5537 BRANDON HUTCHERSONGLEN ALLEN VA2300:10:344900:01:437800:50:225100:00:5711700:24:29 01:28:03 
5624 LAWRENCE KOWNWASHINGTON DC800:09:371300:01:1414000:53:305600:00:578100:23:19 01:28:35Y
5726 MICHAEL CODYCONSHOHOCKEN PA4600:11:4011200:02:214800:48:565300:00:5712500:24:47 01:28:39 
5821 BRANDON BARTHELMEHORELAND PA16600:14:137000:01:584100:48:108800:01:068300:23:22 01:28:47 
5928 GREGORY MATHERICHMOND VA4200:11:1818700:03:016800:50:053900:00:548900:23:37 01:28:53 
6030 JAMES PEARSONMCLEAN VA10600:13:187700:02:006600:50:0013800:01:195600:22:36 01:29:11 
6147 DOUGLAS LANDAUHERNDON VA7400:12:343100:01:328200:50:564200:00:553300:21:1700:02:0001:29:11 
PlaceAgeCat.NAMECITY/STATERankSWIMRankT1RankBIKERankT2RankRUNPENALTYTIMEDQ
6244 DOUGLAS PRICEFAIRFAX VA2600:10:41500:01:069300:51:342700:00:5013700:25:03 01:29:12Y
6336 DAVID MARTZARLINGTON VA22800:15:5513400:02:363100:47:162200:00:476700:22:50 01:29:22 
6451CDAVE PREDZINMANASSAS VA4300:11:282800:01:266000:49:425700:00:5817700:25:57 01:29:28 
6528 SHAUN ROONEYBOLLING AFB DC13500:13:412500:01:258500:51:015900:00:586100:22:43 01:29:47 
6650 CRAIG BRUMWELLASTON PA7900:12:426200:01:5511100:52:184700:00:564300:21:59 01:29:48 
6728 MATTHEW SANDERLCOLUMBIA MD3200:10:564800:01:4211800:52:341600:00:469700:23:53 01:29:49 
6836 GREGORY HAGARPULASKI VA700:09:24700:01:0920000:55:4715400:01:225100:22:20 01:30:01Y
6934CVEDAT KAPLANFREDERICK MD8700:12:521200:01:148100:50:51600:00:3813200:25:00 01:30:32 
7049 ROBERT BOSLEYVIRGINIA BEACH VA11200:13:2110100:02:146100:49:4510600:01:1111200:24:12 01:30:41 
7142 THOMAS JEFFERSALEXANDRIA VA7100:12:3120000:03:083800:48:0321000:01:3715700:25:27 01:30:45 
7245 JOHN SZCZYGIELARLINGTON VA13400:13:418000:02:065900:49:383000:00:5011900:24:33 01:30:45 
7332 DAVID BARILSTAFFORD VA10900:13:2012900:02:318900:51:2317400:01:274700:22:06 01:30:45 
7437 ARAVIND IMMANENIGLEN ALLEN VA5300:11:596700:01:576700:50:0110000:01:0916400:25:43 01:30:47 
7538 MICHAEL MATNEYFREDERICK MD17700:14:4519600:03:064200:48:1310500:01:118700:23:35 01:30:48 
7627 JONATHAN HILERNORFOLK VA14000:13:4712100:02:276300:49:5215300:01:228400:23:23 01:30:49 
7743 TOM BEGLEYSTERLING VA18900:14:543300:01:357700:50:2112000:01:147100:22:59 01:31:01 
7838 JED VANICHKACHORNGLEN ALLEN VA21600:15:385000:01:437500:50:182500:00:495700:22:37 01:31:04 
7939 JOHN LEIMANNMECHANICSVILLE VA7000:12:3116700:02:5210100:51:5623100:01:424900:22:16 01:31:15 
8044 RYAN MITCHELLCHEVY CHASE MD18700:14:539300:02:104000:48:0715500:01:2212700:24:48 01:31:19 
8144 GLEN KNUTSONVIRGINIA BEACH VA20500:15:173900:01:395200:49:054000:00:5411600:24:28 01:31:21 
8248CKIP JAWISHFREDERICK MD6800:12:294500:01:4210300:51:5911800:01:1310300:24:02 01:31:24 
8331 JUSTIN PIERCEWOODBRIDGE VA19400:15:038400:02:089900:51:5117300:01:262900:21:05 01:31:30 
8446 PAUL BERNIERNOTTINGHAM MD10100:13:137400:01:594700:48:5221900:01:3818000:26:00 01:31:40 
8538 DAN MURPHYKENSINGTON MD1100:09:4915800:02:4820100:55:5025000:01:483800:21:36 01:31:49 
8633 DAVID CALLAWAY JRSTAFFORD VA7300:12:346300:01:5613100:53:154500:00:567700:23:13 01:31:52 
8731CSHAWN CLARKRESTON VA10700:13:1815900:02:484300:48:1416500:01:2518600:26:10 01:31:53 
8845 BILL GERZABEKSPRINGFIELD PA13300:13:3710800:02:176200:49:466200:01:0015300:25:20 01:31:58 
8943 MICHAEL OCONNORARLINGTON VA11300:13:2217100:02:5410200:51:577700:01:036500:22:49 01:32:03 
9038CCOLLIN MCCAFFERYARLINGTON VA9700:13:0710400:02:163500:47:4018600:01:3021200:27:34 01:32:03 
9144 SERGE VANDERBREETSTRAETENALEXANDRIA VA13000:13:3413000:02:336400:49:5618500:01:2912600:24:47 01:32:18 
9231 TIM COOPERQUANTICO VA15900:14:044400:01:4112300:52:468400:01:056900:22:57 01:32:32 
PlaceAgeCat.NAMECITY/STATERankSWIMRankT1RankBIKERankT2RankRUNPENALTYTIMEDQ
9345 SCOTT SMALLWOODARLINGTON VA19600:15:0723000:03:2710400:52:013200:00:513200:21:17 01:32:41 
9446 JOHN LYSHERFREDERICKSBURG VA6100:12:1716000:02:4810500:52:0310200:01:0912000:24:33 01:32:49 
9539 MICHAEL TYYNISMAAFAIRFAX VA16300:14:1111800:02:258700:51:0612400:01:149900:23:56 01:32:50 
9637 JAMES ERWINWASHINGTON DC16700:14:2212200:02:2811400:52:263800:00:526400:22:48 01:32:54 
9741 WILLIAM RASKINALEXANDRIA VA20300:15:1520800:03:127900:50:3017100:01:265500:22:34 01:32:55 
9838 MATT LOUGHLANSDOWNE VA17100:14:309000:02:085600:49:2410700:01:1216800:25:48 01:33:00 
9928 DAN FULWIDERARLINGTON VA10000:13:1214600:02:4212200:52:4520400:01:337000:22:57 01:33:07 
10040 RICHARD STALLINGSFAIRFAX VA18500:14:5214700:02:428000:50:5022200:01:397800:23:14 01:33:16 
10137 DARREN BEILSTEINWILLIAMSBURG VA9100:13:0014000:02:395700:49:3411600:01:1320200:27:00 01:33:23 
10235CKEVIN GILBARTEBLACKSBURG VA15600:14:0213700:02:378300:50:5615700:01:2311800:24:32 01:33:28 
10348 KEN NAILCHARLOTTESVILLE VA13600:13:428800:02:0812700:53:038300:01:049600:23:50 01:33:45 
10441 FRED MILANOWSKIWASHINGTON DC12200:13:297100:01:5810000:51:5213100:01:1714900:25:16 01:33:51 
10539 JAMES DEMMASILVER SPRING MD5900:12:1618200:02:5713200:53:157600:01:0211500:24:23 01:33:52 
10647 PETER FOLGEROAKTON VA10200:13:1513600:02:369100:51:2421500:01:3813500:25:01 01:33:53 
10737 SEAN DURITSAASHBURN VA15000:13:5623600:03:337000:50:1013200:01:1813900:25:04 01:33:59 
10845 GREG TUCKMECHANICSVILLE VA26000:16:5120100:03:089500:51:4115200:01:222700:21:01 01:34:00 
10920 SCOTT MACDONALVIRGINIA BEACH VA12600:13:3215700:02:4713300:53:199700:01:098000:23:16 01:34:01 
11028 J.R. STRATTONFALLS CHURCH VA8900:12:549100:02:099800:51:5011400:01:1318200:26:07 01:34:11 
11140 GARTH HORNEFREDERICKSBURG VA23100:15:5715500:02:4611300:52:2211300:01:134400:22:01 01:34:18 
11252 MARK MARKUSONPHOENIX MD500:09:2025000:03:4220200:55:5218700:01:3010200:24:02 01:34:24 
11327 MATT LANDMEIERHERNDON VA11000:13:2021300:03:1417100:54:3418900:01:304200:21:49 01:34:26 
11424 NATHAN CURLLARLINGTON VA2100:10:3213800:02:3713700:53:2623900:01:4518900:26:23 01:34:41 
11525 JEFF HASENAUERBALTIMORE MD12800:13:33        00:02:0001:34:44 
11637 RICK DAVISHAGERSTOWN MD1500:10:082100:01:2018700:55:2115800:01:2319400:26:34 01:34:45Y
11731 WILLIAM WASKESASHBURN VA6000:12:167900:02:0414400:53:4025100:01:5013100:24:59 01:34:46 
11833 CHRISTOPHER WELLSWILLIAMSBURG VA17200:14:346900:01:5817700:54:423700:00:526200:22:45 01:34:48 
11947 LUBIN HERNANDEZ PALOMINOSILVER SRPING MD    9700:51:4424800:01:4716200:25:42 01:34:54 
12034 MARK HARRISCENTREVILLE VA8000:12:4222700:03:2714300:53:389600:01:0810700:24:06 01:34:58 
12147 WARE PALMERARLINTON VA6400:12:2111600:02:2315200:53:5813900:01:1914000:25:05 01:35:03 
12226CT. ISAAC SIMERLYALEXANDRIA VA20000:15:1229900:04:596900:50:094300:00:5510500:24:04 01:35:18 
12341 RANDALL BLANCHETTIRICHMOND VA10300:13:169500:02:1112100:52:4112800:01:1617900:26:00 01:35:21 
PlaceAgeCat.NAMECITY/STATERankSWIMRankT1RankBIKERankT2RankRUNPENALTYTIMEDQ
12427 JOHN FRANKLIN IIIWASHINGTON DC12900:13:3426200:04:0012500:52:5419500:01:328800:23:36 01:35:33 
12528 JARRETT RICERICHMOND VA8600:12:516400:01:5612000:52:3612100:01:1420300:27:02 01:35:36 
12644 FRANK TANTILLONEW YORK NY19700:15:0813100:02:349400:51:4114500:01:2113400:25:01 01:35:41 
12726CMIKE DORIBALTIMORE MD2000:10:2818400:02:588400:50:5710300:01:1025700:30:12 01:35:43 
12846 MICHAEL ANSONWAYNESBORO VA16200:14:0818900:03:0214700:53:5122600:01:417600:23:09 01:35:49 
12936 KEVIN MOLLOYCENTREVILLE VA7800:12:4114400:02:4014800:53:5417800:01:2814700:25:15 01:35:56 
13025 BENJAMIN GREENALEXANDRIA VA4900:11:4721400:03:1518100:54:559400:01:0813000:24:55 01:35:57 
13139 JUSTIN SCHOEMANFREDERICKSBURG VA9800:13:0915100:02:4413000:53:147800:01:0317200:25:50 01:35:59 
13251 DAVID TIPLERRESTON VA5700:12:0528100:04:2316500:54:27     01:36:04 
13341CJOEL PEARSONMANASSAS PARK VA20100:15:1410500:02:1610800:52:0720300:01:3313300:25:00 01:36:08 
13438 CARLOS RODRIGUEZWHEATON MD20900:15:2311000:02:209600:51:4217600:01:2815100:25:18 01:36:09 
13541 FRANK BATESMIDLOTHIAN VA2800:10:491500:01:1418400:55:0118400:01:2921400:27:38 01:36:10Y
13651 STUART MCFARRENARLINGTON VA15700:14:028200:02:0717900:54:4723500:01:439200:23:42 01:36:19 
13728 DAVID FOSTERCOLLEGE PARK MD6900:12:309600:02:1119200:55:3122000:01:3912400:24:37 01:36:26 
13836 MATTHEW TALBOTCLIFTON VA9900:13:119900:02:1315700:54:1412600:01:1516000:25:35 01:36:26 
13935 ZAK MCNAMARAALEXANDRIA VA22000:15:4024500:03:377600:50:1925400:01:5113600:25:02 01:36:28 
14042 BRUCE ALLENTUCKNORTH POTOMAC MD12100:13:2920300:03:0912900:53:1215900:01:2415600:25:26 01:36:37 
14133 CLAY LOUCKSMIDLOTHIAN VA6300:12:208600:02:0819100:55:306700:01:0117400:25:54 01:36:51 
14238CDARYL CHESLEYFREDERICKSBURG VA20400:15:1518000:02:5716100:54:231700:00:469400:23:47 01:37:06 
14334 MATT WEBSTERASHBURN VA20700:15:1923300:03:2911600:52:3023600:01:4411100:24:11 01:37:11 
14443 DAVID GRATTANARLINGTON VA12700:13:3214100:02:3915400:54:0111500:01:1317600:25:55 01:37:19 
14553 DENNIS BARRRIDGE MD23000:15:5715600:02:4611200:52:2214700:01:2114500:25:12 01:37:37 
14643 MARK RAIFORDAMISSVILLE VA8100:12:438500:02:0815300:53:5913300:01:1821100:27:33 01:37:38 
14755 STEVE BRADLEYPURCELLVILLE VA16100:14:075600:01:5017000:54:338900:01:0618500:26:09 01:37:44 
14841 BRIAN MUMAWSANDY HOOK VA21300:15:3416900:02:5417500:54:378100:01:039100:23:40 01:37:45 
14938 CHRIS ZEGALWASHINGTON DC3100:10:55300:01:0212600:52:5626500:01:5926100:30:59 01:37:49Y
15039CDAVID TOMBLINALEXANDRIA VA15800:14:0316400:02:498800:51:0826100:01:5522100:28:10 01:38:04 
15136 JIM HOLCOMBBURKE VA11400:13:2316500:02:5014500:53:4328500:02:1417800:25:58 01:38:06 
15237 MARK IVORYSPOTSYLVANIA VA22700:15:5417200:02:5512800:53:0814200:01:2012900:24:53 01:38:08 
15336 AARON SHIFFRINWASHINGTON DC5600:12:0531000:05:2110900:52:0832100:03:3514100:25:05 01:38:12 
15425EMROBERT WELCHMINERAL VA4500:11:3916600:02:5120400:56:0112900:01:1619000:26:26 01:38:12 
PlaceAgeCat.NAMECITY/STATERankSWIMRankT1RankBIKERankT2RankRUNPENALTYTIMEDQ
15542 FRED LATRASHALEXANDRIA VA24500:16:3126000:03:5611500:52:2816700:01:2510000:23:57 01:38:15 
15650 JOHN BLANKENSHIPRICHMOND VA16500:14:128700:02:0816700:54:2914900:01:2118300:26:08 01:38:16 
15736 RODOLFO LUZIOALEXANDRIA VA24100:16:1829700:04:5511900:52:3519300:01:317400:23:08 01:38:25 
15842 KEVIN JONESCOLUMBIA MD4400:11:3120600:03:1113900:53:2824300:01:4622900:28:37 01:38:30 
15931 ERIK HOFFLANDWASHINGTON DC25300:16:4017700:02:5613500:53:2325300:01:509800:23:53 01:38:41 
16031 KENNY MITCHELLALEXANDRIA VA23400:16:0828700:04:2715800:54:159000:01:067300:23:03 01:38:59 
16135 ERIC GREENWASHINGTON DC26600:17:0320500:03:1117300:54:3622800:01:415300:22:30 01:38:59 
16226 STEVEN GORMANJACKSONVILLE NC11800:13:2812500:02:2823900:57:588500:01:0510800:24:08 01:39:05 
16329 MICHAEL HERDSONCOLUMBIA MD6500:12:2330000:05:0315500:54:1024200:01:4616600:25:46 01:39:05 
16431 ROBERT BELLRALEIGH NC29100:18:1113900:02:3910700:52:068000:01:0314400:25:08 01:39:06 
16539 ARTHUR GRACEHAYMARKET VA18200:14:518300:02:0718300:55:0116300:01:2416700:25:46 01:39:08 
16631 BRYAN WILLIAMSARLINGTON VA6200:12:1816300:02:4923400:57:4711200:01:1313800:25:03 01:39:08 
16730 MIKE BROWNBRAMBLETON VA25800:16:4612000:02:2617400:54:371800:00:4612300:24:36 01:39:09 
16838EMJIM SUMNERWASHINGTON DC13700:13:4214500:02:4126101:00:0313500:01:184000:21:40 01:39:23 
16932 PATRICK HOGANRIVA MD19500:15:0510700:02:1711000:52:0911700:01:1323700:28:52 01:39:35 
17047 BOB CHRISTIANFREDERICKSBURG VA9500:13:0517900:02:5620300:55:579900:01:0919600:26:35 01:39:41 
17119 BEN HAIRCHARLOTTESVILLE VA3500:11:0620700:03:1225700:59:254400:00:5614200:25:05 01:39:43 
17227 DAVID GEDNEYROCKVILLE MD21500:15:3718300:02:5811700:52:3010800:01:1215800:25:3000:02:0001:39:45 
17329 TIM BROWNFALLS CHURCH VA25100:16:3922000:03:2114100:53:3329000:02:1610100:23:59 01:39:46 
17444 DAVID STEARRETTANNANDALE VA17600:14:4422200:03:2318200:54:559500:01:0817100:25:50 01:39:59 
17546 STEPHEN PLANTHERNDON VA28700:18:0117300:02:5516300:54:245000:00:579300:23:45 01:40:01 
17644 TODD GUNDERSONELLICOTT CITY MD16000:14:0521500:03:1521300:56:2127900:02:0611400:24:20 01:40:05 
17748 RAND FOLKMANGLENELG MD18100:14:5023400:03:3019600:55:4019400:01:3112100:24:34 01:40:05 
17843 KAI GOODRICHARLINGTON VA3000:10:5311700:02:2425000:58:3916100:01:2420000:26:48 01:40:06Y
17924 MATTHEW FITZPATRICKDUMFRIES VA5800:12:1419800:03:0722700:57:2824100:01:4516300:25:43 01:40:15 
18033 GERARD LABERGEWALDORF MD25000:16:3616800:02:5319500:55:358600:01:0511000:24:09 01:40:16 
18157 DAVID CONOVERGREAT FALLS VA9300:13:0321700:03:1613800:53:2621400:01:3824100:29:09 01:40:29 
18249 MICHAEL FRIDLEYPOWHATAN VA21400:15:3511300:02:2215000:53:557000:01:0221500:27:40 01:40:32 
18342 JOHN LANGFORDMONTCLAIR VA14100:13:4926400:04:0220700:56:0529900:02:2711300:24:13 01:40:34 
18429CKEITH PRUSEKRICHMOND VA22900:15:5611900:02:2615600:54:106500:01:0020900:27:21 01:40:52 
18532 DANNY HOBENSTAFFORD VA22200:15:4615300:02:4619000:55:2920000:01:3215400:25:22 01:40:53 
PlaceAgeCat.NAMECITY/STATERankSWIMRankT1RankBIKERankT2RankRUNPENALTYTIMEDQ
18635 STEPHEN KAHNJACKSONVILLE NC14500:13:5310000:02:1416400:54:2722400:01:4123500:28:41 01:40:53 
18736 ROB ALLENEAST HAMPTON NY26300:16:5919200:03:0415100:53:567900:01:0317500:25:54 01:40:54 
18833 STEVEN SUGGSCENTREVILLE VA21800:15:3916200:02:4920500:56:0216200:01:2414800:25:15 01:41:07 
18927 JOSEPH SHUSKOSTAFFORD VA22100:15:4410600:02:1616600:54:2815600:01:2220800:27:21 01:41:10 
19041 STEVE BOOKFAIRFAX VA14700:13:5521100:03:1321000:56:1519600:01:3219300:26:30 01:41:24 
19139 JOHN WILKERSONSTAFFORD VA17400:14:3619000:03:0318000:54:537400:01:0221800:28:02 01:41:33 
19235 J.P. MCDONOUGHFREDERICKSBURG VA22400:15:4919400:03:0417800:54:4621100:01:3719100:26:26 01:41:40 
19335 SCOTT ACKERMANLANSDOWNE VA21000:15:2720200:03:0821600:56:4012700:01:1514600:25:14 01:41:42 
19421 DANIEL GOCHENOURLURAY VA15200:13:5724900:03:4214900:53:5522500:01:4123300:28:38 01:41:50 
19537 EDWIN GARLEPPANNANDALE VA23700:16:1222100:03:2212400:52:4916000:01:2422000:28:06 01:41:50 
19637 MARK BOLOGNAARLINGTON VA31300:19:2211400:02:2221100:56:1520700:01:367500:23:08 01:42:41 
19733 JOSHUA WILLIAMSONWASHINGTON DC18400:14:5214900:02:4323200:57:3915000:01:2118700:26:10 01:42:44 
19831 BRIAN GRINDALLARLINGTON VA17000:14:2715200:02:4522400:57:2417000:01:2519800:26:46 01:42:45 
19931 KENNETH SCHWEIGHOFERRICHMOND VA17500:14:3924100:03:3715900:54:1621800:01:3823100:28:37 01:42:45 
20056 PAUL CROWTHERPALMYRA VA14600:13:5428900:04:2922200:57:1222300:01:4016100:25:39 01:42:52 
20131 DAN OCONNELLRESTON VA3600:11:0719900:03:0825800:59:2714800:01:2121700:27:51 01:42:53 
20233 RANDY BEAUCHAMPROCKY MOUNT VA17800:14:457800:02:0019800:55:4411100:01:1224400:29:20 01:43:00 
20331 BASSAM KARIMVIENNA VA11100:13:2117600:02:5623800:57:5718100:01:2921000:27:29 01:43:09 
20447 BRAD SELLERSRICHMOND VA24000:16:179700:02:1216200:54:242800:00:5024800:29:35 01:43:15 
20545 CHIP COYLEARLINGTON VA15100:13:5727700:04:1724300:58:087100:01:0210600:24:0600:02:0001:43:27 
20624 STEVEN LONGBETHESDA MD20800:15:1925900:03:5520900:56:1014300:01:2019900:26:47 01:43:31 
20742 ANDREW MCBRIDEWASHINGTON DC22500:15:49      22400:28:17 01:43:33 
20850 JAMES TUBBSLEXINGTON VA29600:18:3017000:02:5417200:54:3625600:01:5216900:25:49 01:43:39 
20943 LARS LARSONWILLIAMSBURG VA27100:17:1417800:02:5613600:53:2521600:01:3822700:28:29 01:43:41 
21023 MICHAEL HATFIELDROCKVILLE MD24900:16:3630500:05:1319400:55:3314400:01:2014300:25:07 01:43:48 
21138 JAMES HAMILTONBETHESDA MD28200:17:3929600:04:5316900:54:3228800:02:1512200:24:35 01:43:52 
21230 TIM THOMPSONFREDERICK MD19800:15:1021600:03:1624800:58:3123000:01:4215000:25:16 01:43:52 
21334 DAVID DEVERNOEWASHINGTON DC26100:16:5822300:03:2420800:56:0820100:01:3317300:25:52 01:43:53 
21444 CHIP AUSTINSTAFFORD VA5200:11:575300:01:4923500:57:4816400:01:2526300:31:03 01:44:00Y
21527 NICHOLAI DESSYPRISNEW YORK NY30700:18:5624400:03:3718500:55:0712300:01:1415500:25:24 01:44:16 
21623 TERRENCE SLACKSTAFFORD VA32400:23:0618500:02:599000:51:239100:01:0717000:25:49 01:44:22 
PlaceAgeCat.NAMECITY/STATERankSWIMRankT1RankBIKERankT2RankRUNPENALTYTIMEDQ
21740 MARK SAMUELSCROFTON MD19000:14:5612600:02:2823000:57:3214600:01:2122300:28:12 01:44:28 
21832 DOUGLAS SACKINARLINGTON VA24200:16:1830400:05:1019300:55:3328300:02:1215200:25:19 01:44:30 
21929 DAVID CLIFTONARLINGTON VA25900:16:5127400:04:1018600:55:1019900:01:3220400:27:03 01:44:44 
22041 JOHN VOLTZERIE PA26700:17:0425300:03:4614200:53:3625700:01:5423400:28:40 01:44:57 
22129 JASON NAVONRESTON VA25600:16:4425800:03:5417600:54:3820200:01:3322500:28:18 01:45:05 
22242 TIM SCHWEICHMANASSAS VA28800:18:0826800:04:0622600:57:2723300:01:4310900:24:08 01:45:30 
22332 TRAVIS SARKEESRICHMOND VA18600:14:5322500:03:2621500:56:3414000:01:1924500:29:24 01:45:34 
22431 JEFFREY GROSSALEXANDRIA VA8300:12:4925700:03:5419900:55:4717200:01:2626700:31:42 01:45:35 
22540CRICHARD GERHARDTWARRENTON VA8400:12:509400:02:1122800:57:2932500:04:0724000:29:04 01:45:39Y
22648 BRIAN HOCHHEIMERCATONSVILLE MD           01:45:48Y
22738 WALT GRANVILLERICHMOND VA26500:17:0022400:03:2522000:57:0922700:01:4119700:26:39 01:45:52 
22828 PAUL WATSONARLINGTON VA27000:17:0817400:02:5627001:01:036800:01:019500:23:48 01:45:54 
22933 CLIFF CONGOVIENNA VA30900:19:0831500:05:5810600:52:0424700:01:4620600:27:08 01:46:02 
23027 MATTHEW LYNNFALLS CHURCH VA21900:15:3928000:04:1820600:56:0319700:01:3223200:28:37 01:46:08 
23152CKEVIN CRAWFORDDUMFRIES VA14800:13:5622600:03:2626901:00:5724000:01:4518400:26:08 01:46:10 
23230 KEVIN LADENALEXANDRIA VA32300:22:4715400:02:4616800:54:2918200:01:2912800:24:51 01:46:20 
23326 BRENT NUSSBAUMARLINGTON VA25500:16:4228400:04:2523300:57:4126000:01:5516500:25:43 01:46:25 
23429 MARC DUNCANWASHINGTON DC30200:18:4925500:03:5118800:55:2813400:01:1820700:27:09 01:46:33 
23528 GARY MCKENZIEFREDERICKSBURG VA12300:13:3113300:02:3522900:57:3216600:01:2525200:29:4100:02:0001:46:42 
23642 JOSE ROMEROGLEN BURNIE MD    25900:59:3419200:01:3119200:26:27 01:46:49 
23759 CHUCK WIENCKOWSKIBEL AIR MD24300:16:2621000:03:1224200:58:0816900:01:2521600:27:42 01:46:52 
23831 JAMES NOONROCKVILLE, MARYLAND MD31400:19:3216100:02:4913400:53:238700:01:0625500:30:09 01:46:57 
23938 CHRISTOPHER LYONSRICHMOND VA19300:15:0122800:03:2722500:57:2629200:02:1823800:28:55 01:47:04 
24050 EDWARD BUTLERMIDLOTHIAN VA15400:13:5929400:04:5025100:58:4627400:02:0521300:27:37 01:47:14 
24149 MARK RYANMANASSAS VA13900:13:4530600:05:1421700:56:4526400:01:5824900:29:35 01:47:16 
24263 DAVID GEARINARLINGTON VA24700:16:3323800:03:3418900:55:2823400:01:4325600:30:10 01:47:26 
24348 MITCHELL FRANKLINGERMANTOWN MD9200:13:025700:01:5123700:57:5425800:01:5428700:33:07 01:47:45Y
24436 ETHAN SELTZEROILVILLE VA11900:13:2819300:03:0427401:01:2018300:01:2923000:28:37 01:47:57 
24551CMICHAEL MOUGANISNOKESVILLE VA8500:12:507600:02:0025300:58:5331300:02:5627300:31:56 01:48:33Y
24630 LEONARDO LEONATOFAIRFAX VA10500:13:1711100:02:2125500:59:1927600:02:0527200:31:55 01:48:56Y
24743 MATT ZURASWARRENTON VA27300:17:2224000:03:3627601:01:236400:01:0018100:26:00 01:49:20 
PlaceAgeCat.NAMECITY/STATERankSWIMRankT1RankBIKERankT2RankRUNPENALTYTIMEDQ
24830 DAVID SHUTTLEWORTHKING GEORGE VA27200:17:1813200:02:3525200:58:475200:00:5725400:29:59 01:49:33 
24940 DON PETTFREDERICKSBURG VA31700:20:0327100:04:0716000:54:1824500:01:4624700:29:34 01:49:46 
25024CDAVID ADAMSWASHINGTON DC16400:14:1115000:02:4421200:56:1730400:02:3829400:34:01 01:49:49 
25159 ROGER GIBSONMIDDLETOWN MD22300:15:4614200:02:3922100:57:1218800:01:3028500:33:01 01:50:07 
25230CJOHN ELLIOTFALLS CHURCH VA6700:12:2524200:03:3728501:02:196300:01:0026000:30:49 01:50:08 
25339CSTEVE BREISETHGREAT FALLS VA15500:13:5914300:02:4024700:58:2510900:01:1229200:33:55 01:50:10 
25430CJON JUDAHALEXANDRIA VA28100:17:3923100:03:2724900:58:3420600:01:3524300:29:17 01:50:31 
25552 BOB MALLOYFAIRFAX VA30600:18:5425600:03:5323100:57:3427300:02:0422200:28:10 01:50:34 
25651 DAVE HENKELELLICOTT CITY MD24800:16:3530200:05:0924500:58:1023700:01:4424200:29:09 01:50:45 
25728 JEFF WALTONARLINGTON VA13100:13:3630100:05:0827701:01:2626700:02:0122800:28:36 01:50:45 
25840CDANIEL BEASLEYALEXANDRIA VA27800:17:3531900:06:2924000:58:0131800:03:2015900:25:31 01:50:54 
25939 J CARROLLGAITHERSBURG MD28600:17:5624800:03:4126301:00:2128200:02:0920100:26:58 01:51:04 
26045 STEVE KELLEYNORTH POTOMAC MD23200:16:0123700:03:3324600:58:1721300:01:3828000:32:26 01:51:52 
26133 WISAM KARIMHERNDON VA18800:14:5428800:04:2827801:01:4426600:02:0023600:28:50 01:51:55 
26230CNIC MORROWROANOKE VA21700:15:3918600:02:5922300:57:1317900:01:2829900:34:58 01:52:15 
26328 MATT KAARVIENNA VA30800:18:5924600:03:3826501:00:4029500:02:2120500:27:03 01:52:39 
26456 THOMAS BARNHILLBEL AIR MD32200:22:2420900:03:1219700:55:4326800:02:0124600:29:31 01:52:49 
26540 DAVID GOGOLKIEWICZMANASSAS VA16900:14:2727500:04:1625400:59:0430000:02:2828200:32:38 01:52:51 
26636 DAN HICOKBURKE VA19200:15:0019700:03:0726801:00:5428400:02:1426800:31:44 01:52:57 
26744CKEVIN MCCARTHYBROAD RUN VA24600:16:3227900:04:1724400:58:0929300:02:2027100:31:54 01:53:09 
26842 ROB ROBINSONCROFTON MD28400:17:4627000:04:0729001:03:0025200:01:5019500:26:34 01:53:14 
26948 MARK PATERSONELLICOTT CITY MD14300:13:5327300:04:0926201:00:1229400:02:2028600:33:04 01:53:36 
27038 JOHN KOSICHFALLS CHURCH VA20200:15:1531800:06:2324100:58:0430100:02:2926600:31:33 01:53:42 
27143 WILLIAM CIMINOSEVERN MD27400:17:2421900:03:1929401:03:5111900:01:1421900:28:05 01:53:52 
27229CWILLIAM ANDERSONMANASSAS VA13800:13:4529800:04:5725600:59:1930800:02:4928800:33:13 01:54:02Y
27340 ASANTE SHAKUUR NYABINGISILVER SPRING MD31200:19:1728300:04:2428201:01:5331200:02:5418800:26:12 01:54:37 
27453 SCOTT BROWNLINTHICUM MD21200:15:3119100:03:0328401:02:1624400:01:4627500:32:05 01:54:39 
27524 ADAM DOMANSKIRALEIGH NC26200:16:5825400:03:4726401:00:2724600:01:4626900:31:47 01:54:43 
27652 JAMES MCAVINWASHINGTON DC17300:14:3513500:02:3628701:02:2730900:02:4927700:32:18 01:54:44Y
27733 MARCUS SEILERWASHINGTON DC28900:18:0818100:02:5721800:57:0420800:01:3630100:35:08 01:54:52 
27841CPATRICK LILLYMIDLOTHIAN VA24400:16:3121200:03:1429901:04:2923800:01:4523900:28:56 01:54:53 
PlaceAgeCat.NAMECITY/STATERankSWIMRankT1RankBIKERankT2RankRUNPENALTYTIMEDQ
27951 BILL BOROMBRISTOW VA28500:17:5114800:02:4228001:01:5130200:02:3425800:30:21 01:55:16 
28068 JAMES VADASBEL AIR MD23800:16:1312400:02:2821900:57:0831000:02:5031400:36:39 01:55:17 
28143 KEVIN GOFFTAPPAHANNOCK VA18300:14:5231700:06:2026000:59:5824900:01:4728400:32:43 01:55:37 
28247 RICK FAYYADROCKVILLE MD29800:18:3526300:04:0123600:57:5421200:01:3729600:34:30 01:56:35 
28328 BARRY SCHEITLINGLEN BURNIE MD21100:15:3018800:03:0227501:01:2125500:01:5230000:34:59 01:56:42 
28447 TIMOTHY DURNINGCROFTON MD25400:16:4117500:02:5630301:05:0623200:01:4225900:30:46 01:57:09 
28561 JOHN WEBBDOVER DE9400:13:04600:01:0830701:05:5517500:01:2730700:35:56 01:57:28Y
28640CMICHAEL PRESSNORTH POTOMAC MD29400:18:2322900:03:2728601:02:2527700:02:0526400:31:14 01:57:32 
28749 NEIL OGDENSILVER SPRING MD14200:13:4929500:04:5227301:01:1719800:01:3231000:36:10 01:57:38 
28844CTOM LAVINBALTIMORE MD32000:21:5224300:03:3721400:56:3127000:02:0229300:33:57 01:57:58 
28933 CHRIS CAPUTOARLINGTON VA25700:16:4431100:05:3026601:00:4332600:04:3726200:31:01 01:58:33 
29030 PAUL GROSSFALLS CHURCH VA14400:13:5329300:04:4930501:05:3427800:02:0527800:32:20 01:58:40 
29144 DEAN ANDERSONHENDERSON NC29200:18:1721800:03:1626701:00:5214100:01:2030200:35:29 01:59:13 
29233 CHRISTIAN HOFFARLINGTON VA29000:18:1023900:03:3529801:04:1320900:01:3727400:31:58 01:59:31 
29340 FRANK DIMEOFALLS CHURCH VA23300:16:0629000:04:3627101:01:0727500:02:0531100:36:13 02:00:05 
29452 PETER ECKELFREDERICK MD27500:17:2528600:04:2729601:04:0226900:02:0127900:32:22 02:00:15 
29564 GEORGE STEWARTBEL AIR MD23900:16:1525100:03:4228301:01:5829600:02:2630900:36:09 02:00:28 
29662 BRAD KIRLEYORANGE VA29500:18:2920400:03:1030001:04:4528700:02:1427600:32:05 02:00:41 
29741 ALLEN OUTLAWARLINGTON VA31600:19:4328500:04:2528801:02:5029700:02:2726500:31:30 02:00:53 
29847CDENNIS CUMBIEHARPERS FERRY WV28000:17:3726600:04:0428101:01:5325900:01:5530500:35:45 02:01:12 
29928 SAM RODGERSARLINGTON VA30100:18:4730800:05:2129201:03:3429100:02:1827000:31:49 02:01:47 
30053 GEORGE FANDELGLEN ALLEN VA26800:17:0431200:05:3027901:01:4531400:02:5631200:36:13 02:03:27 
30127 BRIAN HUBLARARLINGTON VA10800:13:2012300:02:2832001:10:2728600:02:1430300:35:32 02:03:59Y
30237 JOHN MALONEARLINGTON VA27700:17:2832000:06:5829701:04:0331700:03:1228300:32:42 02:04:20 
30334CMICHAEL CAMPBELLSPRINGFIELD VA29700:18:3226100:03:5831801:10:0826200:01:5625300:29:52 02:04:24 
30450 JOHN HOCHHEIMERALEXANDRIA VA31100:19:1629200:04:3931201:08:1331100:02:5325100:29:40 02:04:39 
30540 DARREN KIPPRICHMOND VA31900:20:3032100:07:2131001:07:3926300:01:5722600:28:18 02:05:44 
30641CDAVID HICKEYFALLS CHURCH VA23500:16:0927600:04:1729501:03:5231900:03:2432000:38:14 02:05:54 
30735CWALTER HARMSRICHMOND VA32100:22:1428200:04:2427201:01:1432200:03:4129500:34:29 02:06:00 
30842CRICHARD KERNOZEKPORT TOBACCO MD30300:18:4927800:04:1730401:05:0927200:02:0430600:35:47 02:06:05 
30943 RICHARD FFRENCHGREAT FALLS VA31500:19:4219500:03:0530901:06:5228100:02:0829800:34:41 02:06:26 
PlaceAgeCat.NAMECITY/STATERankSWIMRankT1RankBIKERankT2RankRUNPENALTYTIMEDQ
31034 BRYCE DESYWASHINGTON DC32500:23:5124700:03:4029101:03:3230700:02:4629000:33:30 02:07:18 
31132CTIM GRETENARLINGTON VA18000:14:4630700:05:1930801:06:0732400:04:0531800:37:28 02:07:42 
31236CFRANK BIGGIOWASHINGTON DC26400:17:0026500:04:0331601:09:3619000:01:3130400:35:45 02:07:53 
31335 SHANE MOOREBETHESDA MD19100:14:5726700:04:0432301:14:0518000:01:2829100:33:52 02:08:24 
31426 DAVID BUCHANANRICHMOND VA31800:20:2427200:04:0730601:05:3629800:02:2730800:35:58 02:08:30 
31568 JOHN MULFLUREASTON MD19900:15:1132200:07:2829301:03:3532000:03:3232300:38:46 02:08:31 
31648 ERIC DUNCANCLIFTON VA29300:18:2229100:04:3830201:04:5728900:02:1532200:38:44 02:08:55 
31734 ERWIN OSBORNOAKTON VA27900:17:3632400:07:4131901:10:1017700:01:2828100:32:33 02:09:27 
31843 KEN WAGNERBETHESDA MD31000:19:1632300:07:4130101:04:5731600:03:0129700:34:38 02:09:31 
31960 JOHN DILLONRICHMOND VA25200:16:3926900:04:0631501:09:2619100:01:3131900:38:10 02:09:51 
32027 CLARK JONESARLINGTON VA32700:26:5323200:03:2931101:08:0228000:02:0725000:29:36 02:10:04 
32131 BARRY BATTLEARLINGTON VA30000:18:4431400:05:5528901:02:5431500:02:5732600:40:04 02:10:32 
32240CJOE HALEBETHESDA MD20600:15:173400:01:3632501:15:3727100:02:0331500:36:45 02:11:16Y
32343CMIKE CARLSONCENTREVILLE VA28300:17:4523500:03:3131401:09:2122900:01:4232400:39:10 02:11:27 
32445 GENE MORANFAIRFAX VA30400:18:5125200:03:4232201:13:4130600:02:4628900:33:17 02:12:15 
32549 JIM ROSSBERGHERNDON VA29900:18:4131300:05:3532101:11:4730500:02:4431300:36:30 02:15:15 
32657 MILTON WACHTERMINERAL VA26900:17:0532500:09:1231301:08:3132300:03:5631600:37:19 02:16:00 
32733 GABE ARONSONBETHESDA MD27600:17:2630300:05:1032401:14:1320500:01:3432500:39:57 02:18:18 
32828 JOSHUA LOHNARLINGTON VA32800:27:1431600:06:1731701:09:5430300:02:3731700:37:27 02:23:27 
32969 RAY GILBARTEWIRTZ VA30500:18:518100:02:0632701:20:2821700:01:3832700:42:01 02:25:02Y
33034 AUGUSTIN MERCADOGERMANTOWN MD32600:25:0430900:05:2132601:18:419800:01:0932100:38:30 02:28:43 
33137EMDAVID LITKENHUSFALLS CHURCH VA1800:10:171100:01:12      00:02:00  
33235 MIKE FLAHERTYRICHMOND VA16800:14:25           

** Results are for the private use of participants and are the Intellectual Property of Set Up Events. Unauthorized use of these results is prohibited.